sensor_id;sensor_type;location;lat;lon;timestamp;P1;durP1;ratioP1;P2;durP2;ratioP2
47403;SDS011;33157;51.508;4.288;2022-10-16T00:03:20;3.97;;;1.40;;
47403;SDS011;33157;51.508;4.288;2022-10-16T00:08:21;6.53;;;1.83;;
47403;SDS011;33157;51.508;4.288;2022-10-16T00:13:21;5.13;;;1.35;;
47403;SDS011;33157;51.508;4.288;2022-10-16T00:18:22;4.43;;;1.27;;
47403;SDS011;33157;51.508;4.288;2022-10-16T00:23:22;4.45;;;1.60;;
47403;SDS011;33157;51.508;4.288;2022-10-16T00:28:23;4.85;;;1.75;;
47403;SDS011;33157;51.508;4.288;2022-10-16T00:33:23;5.50;;;2.05;;
47403;SDS011;33157;51.508;4.288;2022-10-16T00:38:24;3.75;;;1.80;;
47403;SDS011;33157;51.508;4.288;2022-10-16T00:43:36;3.38;;;1.42;;
47403;SDS011;33157;51.508;4.288;2022-10-16T00:48:39;3.88;;;1.48;;
47403;SDS011;33157;51.508;4.288;2022-10-16T00:53:40;3.15;;;1.20;;
47403;SDS011;33157;51.508;4.288;2022-10-16T00:58:40;6.25;;;1.25;;
47403;SDS011;33157;51.508;4.288;2022-10-16T01:03:41;7.40;;;1.63;;
47403;SDS011;33157;51.508;4.288;2022-10-16T01:08:44;3.25;;;1.35;;
47403;SDS011;33157;51.508;4.288;2022-10-16T01:13:50;6.15;;;1.25;;
47403;SDS011;33157;51.508;4.288;2022-10-16T01:18:58;3.80;;;1.40;;
47403;SDS011;33157;51.508;4.288;2022-10-16T01:24:17;2.57;;;1.30;;
47403;SDS011;33157;51.508;4.288;2022-10-16T01:29:26;2.45;;;1.13;;
47403;SDS011;33157;51.508;4.288;2022-10-16T01:34:39;3.03;;;1.10;;
47403;SDS011;33157;51.508;4.288;2022-10-16T01:39:46;4.18;;;1.33;;
47403;SDS011;33157;51.508;4.288;2022-10-16T01:44:47;1.63;;;0.93;;
47403;SDS011;33157;51.508;4.288;2022-10-16T01:49:49;3.72;;;1.23;;
47403;SDS011;33157;51.508;4.288;2022-10-16T01:54:52;3.03;;;0.90;;
47403;SDS011;33157;51.508;4.288;2022-10-16T01:59:54;3.63;;;1.33;;
47403;SDS011;33157;51.508;4.288;2022-10-16T02:04:58;2.03;;;0.82;;
47403;SDS011;33157;51.508;4.288;2022-10-16T02:10:17;4.43;;;1.50;;
47403;SDS011;33157;51.508;4.288;2022-10-16T02:15:17;7.57;;;0.93;;
47403;SDS011;33157;51.508;4.288;2022-10-16T02:20:19;4.28;;;1.20;;
47403;SDS011;33157;51.508;4.288;2022-10-16T02:25:26;5.70;;;1.02;;
47403;SDS011;33157;51.508;4.288;2022-10-16T02:30:39;1.75;;;1.02;;
47403;SDS011;33157;51.508;4.288;2022-10-16T02:35:44;3.28;;;0.95;;
47403;SDS011;33157;51.508;4.288;2022-10-16T02:40:46;4.00;;;1.10;;
47403;SDS011;33157;51.508;4.288;2022-10-16T02:45:47;1.77;;;0.80;;
47403;SDS011;33157;51.508;4.288;2022-10-16T02:50:47;2.33;;;1.00;;
47403;SDS011;33157;51.508;4.288;2022-10-16T02:55:48;1.98;;;0.95;;
47403;SDS011;33157;51.508;4.288;2022-10-16T03:00:49;3.00;;;1.27;;
47403;SDS011;33157;51.508;4.288;2022-10-16T03:05:49;4.40;;;0.90;;
47403;SDS011;33157;51.508;4.288;2022-10-16T03:10:50;2.40;;;1.00;;
47403;SDS011;33157;51.508;4.288;2022-10-16T03:15:51;5.32;;;0.90;;
47403;SDS011;33157;51.508;4.288;2022-10-16T03:20:52;3.30;;;1.15;;
47403;SDS011;33157;51.508;4.288;2022-10-16T03:25:52;4.15;;;1.25;;
47403;SDS011;33157;51.508;4.288;2022-10-16T03:30:53;3.35;;;1.00;;
47403;SDS011;33157;51.508;4.288;2022-10-16T03:35:54;1.95;;;0.95;;
47403;SDS011;33157;51.508;4.288;2022-10-16T03:40:55;2.63;;;1.13;;
47403;SDS011;33157;51.508;4.288;2022-10-16T03:45:55;5.47;;;1.48;;
47403;SDS011;33157;51.508;4.288;2022-10-16T03:50:56;2.97;;;1.30;;
47403;SDS011;33157;51.508;4.288;2022-10-16T03:55:56;5.03;;;1.20;;
47403;SDS011;33157;51.508;4.288;2022-10-16T04:00:57;2.97;;;1.15;;
47403;SDS011;33157;51.508;4.288;2022-10-16T04:05:57;2.47;;;1.20;;
47403;SDS011;33157;51.508;4.288;2022-10-16T04:10:58;2.42;;;1.13;;
47403;SDS011;33157;51.508;4.288;2022-10-16T04:15:58;6.13;;;1.65;;
47403;SDS011;33157;51.508;4.288;2022-10-16T04:21:05;5.00;;;1.50;;
47403;SDS011;33157;51.508;4.288;2022-10-16T04:26:06;3.55;;;1.30;;
47403;SDS011;33157;51.508;4.288;2022-10-16T04:31:06;8.18;;;1.23;;
47403;SDS011;33157;51.508;4.288;2022-10-16T04:36:08;4.75;;;1.45;;
47403;SDS011;33157;51.508;4.288;2022-10-16T04:41:08;6.22;;;1.33;;
47403;SDS011;33157;51.508;4.288;2022-10-16T04:46:09;2.97;;;1.13;;
47403;SDS011;33157;51.508;4.288;2022-10-16T04:51:10;3.55;;;1.30;;
47403;SDS011;33157;51.508;4.288;2022-10-16T04:56:11;4.38;;;1.45;;
47403;SDS011;33157;51.508;4.288;2022-10-16T05:01:11;8.23;;;1.13;;
47403;SDS011;33157;51.508;4.288;2022-10-16T05:06:12;8.27;;;1.65;;
47403;SDS011;33157;51.508;4.288;2022-10-16T05:11:12;4.05;;;1.10;;
47403;SDS011;33157;51.508;4.288;2022-10-16T05:16:13;5.75;;;1.30;;
47403;SDS011;33157;51.508;4.288;2022-10-16T05:21:13;5.70;;;1.85;;
47403;SDS011;33157;51.508;4.288;2022-10-16T05:26:14;4.88;;;1.25;;
47403;SDS011;33157;51.508;4.288;2022-10-16T05:31:15;3.33;;;1.23;;
47403;SDS011;33157;51.508;4.288;2022-10-16T05:36:16;6.05;;;1.50;;
47403;SDS011;33157;51.508;4.288;2022-10-16T05:41:18;6.15;;;1.33;;
47403;SDS011;33157;51.508;4.288;2022-10-16T05:46:21;5.22;;;1.52;;
47403;SDS011;33157;51.508;4.288;2022-10-16T05:51:22;4.32;;;1.50;;
47403;SDS011;33157;51.508;4.288;2022-10-16T05:56:22;3.08;;;1.60;;
47403;SDS011;33157;51.508;4.288;2022-10-16T06:01:23;7.22;;;1.60;;
47403;SDS011;33157;51.508;4.288;2022-10-16T06:06:25;7.00;;;1.67;;
47403;SDS011;33157;51.508;4.288;2022-10-16T06:11:28;9.00;;;1.70;;
47403;SDS011;33157;51.508;4.288;2022-10-16T06:16:30;6.68;;;1.63;;
47403;SDS011;33157;51.508;4.288;2022-10-16T06:21:30;9.55;;;2.55;;
47403;SDS011;33157;51.508;4.288;2022-10-16T06:26:31;5.95;;;1.50;;
47403;SDS011;33157;51.508;4.288;2022-10-16T06:31:32;7.28;;;1.58;;
47403;SDS011;33157;51.508;4.288;2022-10-16T06:36:33;6.32;;;1.30;;
47403;SDS011;33157;51.508;4.288;2022-10-16T06:41:34;5.80;;;1.40;;
47403;SDS011;33157;51.508;4.288;2022-10-16T06:46:35;9.02;;;1.95;;
47403;SDS011;33157;51.508;4.288;2022-10-16T06:51:35;5.25;;;1.17;;
47403;SDS011;33157;51.508;4.288;2022-10-16T06:56:41;9.48;;;1.67;;
47403;SDS011;33157;51.508;4.288;2022-10-16T07:01:41;4.47;;;1.40;;
47403;SDS011;33157;51.508;4.288;2022-10-16T07:06:42;5.60;;;1.67;;
47403;SDS011;33157;51.508;4.288;2022-10-16T07:11:42;4.13;;;1.20;;
47403;SDS011;33157;51.508;4.288;2022-10-16T07:16:43;5.68;;;1.40;;
47403;SDS011;33157;51.508;4.288;2022-10-16T07:21:44;6.35;;;1.92;;
47403;SDS011;33157;51.508;4.288;2022-10-16T07:26:45;6.78;;;1.65;;
47403;SDS011;33157;51.508;4.288;2022-10-16T07:31:46;8.05;;;1.98;;
47403;SDS011;33157;51.508;4.288;2022-10-16T07:36:48;3.83;;;1.40;;
47403;SDS011;33157;51.508;4.288;2022-10-16T07:41:49;4.20;;;1.70;;
47403;SDS011;33157;51.508;4.288;2022-10-16T07:46:50;9.48;;;3.00;;
47403;SDS011;33157;51.508;4.288;2022-10-16T07:51:50;7.25;;;1.95;;
47403;SDS011;33157;51.508;4.288;2022-10-16T07:56:51;5.00;;;1.80;;
47403;SDS011;33157;51.508;4.288;2022-10-16T08:01:51;7.45;;;1.30;;
47403;SDS011;33157;51.508;4.288;2022-10-16T08:06:52;6.22;;;1.70;;
47403;SDS011;33157;51.508;4.288;2022-10-16T08:11:54;5.55;;;1.45;;
47403;SDS011;33157;51.508;4.288;2022-10-16T08:16:55;5.72;;;1.60;;
47403;SDS011;33157;51.508;4.288;2022-10-16T08:21:55;6.07;;;1.10;;
47403;SDS011;33157;51.508;4.288;2022-10-16T08:26:56;9.25;;;2.17;;
47403;SDS011;33157;51.508;4.288;2022-10-16T08:31:56;8.05;;;1.92;;
47403;SDS011;33157;51.508;4.288;2022-10-16T08:36:57;10.05;;;2.40;;
47403;SDS011;33157;51.508;4.288;2022-10-16T08:52:22;10.85;;;2.45;;
47403;SDS011;33157;51.508;4.288;2022-10-16T08:57:25;9.13;;;1.58;;
47403;SDS011;33157;51.508;4.288;2022-10-16T09:08:14;8.80;;;1.60;;
47403;SDS011;33157;51.508;4.288;2022-10-16T09:13:40;7.25;;;1.67;;
47403;SDS011;33157;51.508;4.288;2022-10-16T09:24:04;9.00;;;1.60;;
47403;SDS011;33157;51.508;4.288;2022-10-16T09:29:20;5.88;;;1.92;;
47403;SDS011;33157;51.508;4.288;2022-10-16T09:39:27;7.13;;;1.45;;
47403;SDS011;33157;51.508;4.288;2022-10-16T09:44:29;8.90;;;1.70;;
47403;SDS011;33157;51.508;4.288;2022-10-16T09:49:30;8.85;;;2.25;;
47403;SDS011;33157;51.508;4.288;2022-10-16T09:54:31;13.23;;;2.37;;
47403;SDS011;33157;51.508;4.288;2022-10-16T09:59:32;12.87;;;2.60;;
47403;SDS011;33157;51.508;4.288;2022-10-16T10:04:39;7.20;;;1.60;;
47403;SDS011;33157;51.508;4.288;2022-10-16T10:09:42;12.73;;;3.00;;
47403;SDS011;33157;51.508;4.288;2022-10-16T10:14:45;9.93;;;2.40;;
47403;SDS011;33157;51.508;4.288;2022-10-16T10:25:11;11.98;;;2.40;;
47403;SDS011;33157;51.508;4.288;2022-10-16T10:30:18;11.98;;;2.25;;
47403;SDS011;33157;51.508;4.288;2022-10-16T10:35:33;12.60;;;2.15;;
47403;SDS011;33157;51.508;4.288;2022-10-16T10:41:04;11.20;;;2.22;;
47403;SDS011;33157;51.508;4.288;2022-10-16T10:46:35;12.23;;;2.88;;
47403;SDS011;33157;51.508;4.288;2022-10-16T11:07:44;10.15;;;2.70;;
47403;SDS011;33157;51.508;4.288;2022-10-16T11:13:52;14.38;;;3.00;;
47403;SDS011;33157;51.508;4.288;2022-10-16T11:18:30;15.75;;;3.95;;
47403;SDS011;33157;51.508;4.288;2022-10-16T11:23:54;19.65;;;3.80;;
47403;SDS011;33157;51.508;4.288;2022-10-16T11:34:02;14.63;;;3.00;;
47403;SDS011;33157;51.508;4.288;2022-10-16T11:44:12;14.82;;;3.15;;
47403;SDS011;33157;51.508;4.288;2022-10-16T11:49:20;13.80;;;2.80;;
47403;SDS011;33157;51.508;4.288;2022-10-16T11:59:55;14.13;;;2.80;;
47403;SDS011;33157;51.508;4.288;2022-10-16T12:05:03;15.95;;;3.08;;
47403;SDS011;33157;51.508;4.288;2022-10-16T12:10:19;14.52;;;3.22;;
47403;SDS011;33157;51.508;4.288;2022-10-16T12:15:26;12.20;;;3.08;;
47403;SDS011;33157;51.508;4.288;2022-10-16T12:20:31;11.57;;;2.42;;
47403;SDS011;33157;51.508;4.288;2022-10-16T12:25:36;17.23;;;3.97;;
47403;SDS011;33157;51.508;4.288;2022-10-16T12:30:52;18.52;;;3.45;;
47403;SDS011;33157;51.508;4.288;2022-10-16T12:35:58;14.05;;;3.08;;
47403;SDS011;33157;51.508;4.288;2022-10-16T12:41:04;14.02;;;2.38;;
47403;SDS011;33157;51.508;4.288;2022-10-16T12:51:10;15.38;;;2.97;;
47403;SDS011;33157;51.508;4.288;2022-10-16T13:01:28;15.98;;;3.53;;
47403;SDS011;33157;51.508;4.288;2022-10-16T13:32:25;16.88;;;2.78;;
47403;SDS011;33157;51.508;4.288;2022-10-16T13:37:26;13.90;;;2.45;;
47403;SDS011;33157;51.508;4.288;2022-10-16T13:42:27;11.20;;;2.60;;
47403;SDS011;33157;51.508;4.288;2022-10-16T13:47:29;8.77;;;1.95;;
47403;SDS011;33157;51.508;4.288;2022-10-16T13:52:30;8.07;;;1.80;;
47403;SDS011;33157;51.508;4.288;2022-10-16T13:57:31;8.95;;;1.70;;
47403;SDS011;33157;51.508;4.288;2022-10-16T14:02:35;11.52;;;2.05;;
47403;SDS011;33157;51.508;4.288;2022-10-16T14:07:38;8.23;;;1.63;;
47403;SDS011;33157;51.508;4.288;2022-10-16T14:12:38;11.88;;;2.28;;
47403;SDS011;33157;51.508;4.288;2022-10-16T14:17:43;10.13;;;2.08;;
47403;SDS011;33157;51.508;4.288;2022-10-16T14:22:44;8.02;;;1.85;;
47403;SDS011;33157;51.508;4.288;2022-10-16T14:28:31;12.53;;;1.90;;
47403;SDS011;33157;51.508;4.288;2022-10-16T14:33:21;8.10;;;1.60;;
47403;SDS011;33157;51.508;4.288;2022-10-16T14:38:33;5.68;;;1.60;;
47403;SDS011;33157;51.508;4.288;2022-10-16T14:43:35;8.75;;;1.67;;
47403;SDS011;33157;51.508;4.288;2022-10-16T14:48:39;5.60;;;1.67;;
47403;SDS011;33157;51.508;4.288;2022-10-16T14:53:42;7.22;;;2.08;;
47403;SDS011;33157;51.508;4.288;2022-10-16T14:58:42;7.90;;;2.00;;
47403;SDS011;33157;51.508;4.288;2022-10-16T15:03:44;6.23;;;1.60;;
47403;SDS011;33157;51.508;4.288;2022-10-16T15:08:45;8.57;;;1.73;;
47403;SDS011;33157;51.508;4.288;2022-10-16T15:13:46;7.17;;;1.47;;
47403;SDS011;33157;51.508;4.288;2022-10-16T15:18:47;7.03;;;1.40;;
47403;SDS011;33157;51.508;4.288;2022-10-16T15:23:48;9.50;;;2.55;;
47403;SDS011;33157;51.508;4.288;2022-10-16T15:28:49;8.07;;;2.70;;
47403;SDS011;33157;51.508;4.288;2022-10-16T15:33:51;6.10;;;2.17;;
47403;SDS011;33157;51.508;4.288;2022-10-16T15:38:54;8.65;;;1.98;;
47403;SDS011;33157;51.508;4.288;2022-10-16T15:43:55;8.38;;;2.30;;
47403;SDS011;33157;51.508;4.288;2022-10-16T15:48:56;6.75;;;1.90;;
47403;SDS011;33157;51.508;4.288;2022-10-16T15:53:58;7.53;;;2.25;;
47403;SDS011;33157;51.508;4.288;2022-10-16T15:59:01;9.73;;;2.20;;
47403;SDS011;33157;51.508;4.288;2022-10-16T16:04:02;6.57;;;2.35;;
47403;SDS011;33157;51.508;4.288;2022-10-16T16:09:04;4.90;;;1.60;;
47403;SDS011;33157;51.508;4.288;2022-10-16T16:14:05;10.00;;;2.10;;
47403;SDS011;33157;51.508;4.288;2022-10-16T16:19:06;7.97;;;2.10;;
47403;SDS011;33157;51.508;4.288;2022-10-16T16:24:08;9.38;;;2.60;;
47403;SDS011;33157;51.508;4.288;2022-10-16T16:29:12;6.82;;;2.38;;
47403;SDS011;33157;51.508;4.288;2022-10-16T16:34:14;6.75;;;1.88;;
47403;SDS011;33157;51.508;4.288;2022-10-16T16:39:15;9.98;;;2.20;;
47403;SDS011;33157;51.508;4.288;2022-10-16T16:44:15;9.90;;;2.83;;
47403;SDS011;33157;51.508;4.288;2022-10-16T16:49:17;13.93;;;2.47;;
47403;SDS011;33157;51.508;4.288;2022-10-16T16:54:18;10.05;;;3.08;;
47403;SDS011;33157;51.508;4.288;2022-10-16T16:59:19;8.68;;;3.13;;
47403;SDS011;33157;51.508;4.288;2022-10-16T17:04:22;8.18;;;1.98;;
47403;SDS011;33157;51.508;4.288;2022-10-16T17:09:22;8.75;;;2.40;;
47403;SDS011;33157;51.508;4.288;2022-10-16T17:14:23;9.65;;;2.33;;
47403;SDS011;33157;51.508;4.288;2022-10-16T17:19:23;10.93;;;3.70;;
47403;SDS011;33157;51.508;4.288;2022-10-16T17:24:24;10.20;;;3.13;;
47403;SDS011;33157;51.508;4.288;2022-10-16T17:29:24;9.07;;;3.08;;
47403;SDS011;33157;51.508;4.288;2022-10-16T17:34:25;11.43;;;3.75;;
47403;SDS011;33157;51.508;4.288;2022-10-16T17:39:26;10.68;;;3.05;;
47403;SDS011;33157;51.508;4.288;2022-10-16T17:44:26;9.10;;;3.08;;
47403;SDS011;33157;51.508;4.288;2022-10-16T17:49:27;7.95;;;2.35;;
47403;SDS011;33157;51.508;4.288;2022-10-16T17:54:27;8.15;;;2.95;;
47403;SDS011;33157;51.508;4.288;2022-10-16T17:59:28;12.00;;;5.53;;
47403;SDS011;33157;51.508;4.288;2022-10-16T18:04:28;10.27;;;4.28;;
47403;SDS011;33157;51.508;4.288;2022-10-16T18:09:29;7.15;;;3.35;;
47403;SDS011;33157;51.508;4.288;2022-10-16T18:14:30;8.90;;;2.80;;
47403;SDS011;33157;51.508;4.288;2022-10-16T18:19:31;8.85;;;2.63;;
47403;SDS011;33157;51.508;4.288;2022-10-16T18:24:32;7.70;;;2.70;;
47403;SDS011;33157;51.508;4.288;2022-10-16T18:29:33;11.15;;;2.80;;
47403;SDS011;33157;51.508;4.288;2022-10-16T18:34:33;10.60;;;2.95;;
47403;SDS011;33157;51.508;4.288;2022-10-16T18:39:36;7.20;;;2.85;;
47403;SDS011;33157;51.508;4.288;2022-10-16T18:44:37;8.40;;;3.20;;
47403;SDS011;33157;51.508;4.288;2022-10-16T18:49:37;10.60;;;4.20;;
47403;SDS011;33157;51.508;4.288;2022-10-16T18:54:38;7.43;;;3.30;;
47403;SDS011;33157;51.508;4.288;2022-10-16T18:59:38;8.70;;;2.83;;
47403;SDS011;33157;51.508;4.288;2022-10-16T19:04:40;9.02;;;3.78;;
47403;SDS011;33157;51.508;4.288;2022-10-16T19:09:40;10.43;;;3.55;;
47403;SDS011;33157;51.508;4.288;2022-10-16T19:14:41;11.90;;;3.58;;
47403;SDS011;33157;51.508;4.288;2022-10-16T19:19:42;9.98;;;3.60;;
47403;SDS011;33157;51.508;4.288;2022-10-16T19:24:43;10.10;;;3.50;;
47403;SDS011;33157;51.508;4.288;2022-10-16T19:29:43;9.90;;;3.90;;
47403;SDS011;33157;51.508;4.288;2022-10-16T19:34:44;12.75;;;3.92;;
47403;SDS011;33157;51.508;4.288;2022-10-16T19:39:45;7.80;;;3.15;;
47403;SDS011;33157;51.508;4.288;2022-10-16T19:44:45;11.73;;;3.95;;
47403;SDS011;33157;51.508;4.288;2022-10-16T19:49:46;8.18;;;3.30;;
47403;SDS011;33157;51.508;4.288;2022-10-16T19:59:53;7.20;;;3.20;;
47403;SDS011;33157;51.508;4.288;2022-10-16T20:04:54;8.00;;;2.72;;
47403;SDS011;33157;51.508;4.288;2022-10-16T20:09:54;9.13;;;3.17;;
47403;SDS011;33157;51.508;4.288;2022-10-16T20:14:55;7.65;;;3.20;;
47403;SDS011;33157;51.508;4.288;2022-10-16T20:19:55;8.05;;;2.90;;
47403;SDS011;33157;51.508;4.288;2022-10-16T20:24:56;7.43;;;3.20;;
47403;SDS011;33157;51.508;4.288;2022-10-16T20:29:56;5.00;;;2.80;;
47403;SDS011;33157;51.508;4.288;2022-10-16T20:34:57;5.38;;;2.50;;
47403;SDS011;33157;51.508;4.288;2022-10-16T20:39:57;16.33;;;10.27;;
47403;SDS011;33157;51.508;4.288;2022-10-16T20:44:58;20.42;;;11.95;;
47403;SDS011;33157;51.508;4.288;2022-10-16T20:49:59;8.18;;;3.83;;
47403;SDS011;33157;51.508;4.288;2022-10-16T20:54:59;9.10;;;3.47;;
47403;SDS011;33157;51.508;4.288;2022-10-16T21:00:00;6.97;;;3.13;;
47403;SDS011;33157;51.508;4.288;2022-10-16T21:05:01;5.85;;;3.05;;
47403;SDS011;33157;51.508;4.288;2022-10-16T21:10:02;11.68;;;4.10;;
47403;SDS011;33157;51.508;4.288;2022-10-16T21:15:03;7.83;;;3.10;;
47403;SDS011;33157;51.508;4.288;2022-10-16T21:20:04;10.70;;;3.85;;
47403;SDS011;33157;51.508;4.288;2022-10-16T21:25:05;6.55;;;3.40;;
47403;SDS011;33157;51.508;4.288;2022-10-16T21:30:06;8.52;;;4.07;;
47403;SDS011;33157;51.508;4.288;2022-10-16T21:35:08;6.85;;;3.42;;
47403;SDS011;33157;51.508;4.288;2022-10-16T21:40:09;7.65;;;4.07;;
47403;SDS011;33157;51.508;4.288;2022-10-16T21:45:10;5.70;;;3.65;;
47403;SDS011;33157;51.508;4.288;2022-10-16T21:50:10;7.97;;;3.40;;
47403;SDS011;33157;51.508;4.288;2022-10-16T21:55:10;6.30;;;3.45;;
47403;SDS011;33157;51.508;4.288;2022-10-16T22:00:11;6.45;;;3.75;;
47403;SDS011;33157;51.508;4.288;2022-10-16T22:05:12;7.30;;;3.67;;
47403;SDS011;33157;51.508;4.288;2022-10-16T22:10:13;7.50;;;4.30;;
47403;SDS011;33157;51.508;4.288;2022-10-16T22:15:13;17.05;;;4.82;;
47403;SDS011;33157;51.508;4.288;2022-10-16T22:20:14;10.52;;;4.95;;
47403;SDS011;33157;51.508;4.288;2022-10-16T22:25:15;12.25;;;4.97;;
47403;SDS011;33157;51.508;4.288;2022-10-16T22:30:15;8.75;;;4.20;;
47403;SDS011;33157;51.508;4.288;2022-10-16T22:35:16;7.45;;;5.10;;
47403;SDS011;33157;51.508;4.288;2022-10-16T22:40:16;6.07;;;3.97;;
47403;SDS011;33157;51.508;4.288;2022-10-16T22:45:17;8.20;;;4.05;;
47403;SDS011;33157;51.508;4.288;2022-10-16T22:50:17;7.10;;;4.22;;
47403;SDS011;33157;51.508;4.288;2022-10-16T22:55:18;10.15;;;3.85;;
47403;SDS011;33157;51.508;4.288;2022-10-16T23:00:18;8.10;;;4.20;;
47403;SDS011;33157;51.508;4.288;2022-10-16T23:05:19;9.15;;;4.78;;
47403;SDS011;33157;51.508;4.288;2022-10-16T23:10:19;8.43;;;3.60;;
47403;SDS011;33157;51.508;4.288;2022-10-16T23:15:24;7.60;;;4.28;;
47403;SDS011;33157;51.508;4.288;2022-10-16T23:20:24;11.73;;;4.55;;
47403;SDS011;33157;51.508;4.288;2022-10-16T23:25:25;9.45;;;5.00;;
47403;SDS011;33157;51.508;4.288;2022-10-16T23:30:25;8.48;;;4.13;;
47403;SDS011;33157;51.508;4.288;2022-10-16T23:35:26;9.20;;;4.50;;
47403;SDS011;33157;51.508;4.288;2022-10-16T23:40:26;6.63;;;4.15;;
47403;SDS011;33157;51.508;4.288;2022-10-16T23:45:27;9.95;;;4.25;;
47403;SDS011;33157;51.508;4.288;2022-10-16T23:50:27;9.32;;;5.30;;
47403;SDS011;33157;51.508;4.288;2022-10-16T23:55:29;6.53;;;4.33;;
